Terminal Aerodrome Forecast
Issued by NWS Bismarck, ND

Home | Current Version | Previous Version | Text Only | Print | Product List | Glossary Off
Versions: 1 2 3 4 5 6 7 8 9 10 11 12 13 14 15 16

000
FTUS43 KBIS 201139
TAFBIS
TAF
KBIS 201139Z 2012/2112 04006KT P6SM BKN110
     FM201800 06011KT P6SM BKN060
     FM210300 06005KT P6SM BKN060
     FM211100 31004KT P6SM BKN080=

USA.gov is the U.S. government's official web portal to all federal, state and local government web resources and services.